Wood Lake, Minnesota
Current Conditions -  °F | °C
As of 4:53 PM on Tuesday 27 Jan 2015 (Local Time) from KGDB Reporting Station
Overcast Overcast  
Wind Chill: 25°   Ceiling: 1300
Heat Index: 34°   Visibility: 10mi
Dew Point: 31°   Wind: 14mph
Humidity: 90%   Direction: 110°ESE
Pressure: 30.06"   Gusts: NA
Location:  44.65°N, 95.54°W
Report Text: KGDB 272253Z AUTO 11012KT 10SM OVC013 01/00 A3006 RMK AO2 T00111004
Loading
Personal Weather Stations






























Interactive Weather Map New forecast layout! Learn more

10-Day Weather Forecast

Advertisements
Track Severe Weather on mobile